Time;durP1;ratioP1;P1;durP2;ratioP2;P2;SDS_P1;SDS_P2;PMS_P1;PMS_P2;Temp;Humidity;BMP_temperature;BMP_pressure;BME280_temperature;BME280_humidity;BME280_pressure;Samples;Min_cycle;Max_cycle;Signal;HPM_P1;HPM_P2
2022/04/16 00:01:49;;;;;;;0.10;0.10;;;;;;;;;;5018099;28;20075;-91
2022/04/16 00:04:15;;;;;;;0.10;0.10;;;;;;;;;;5018178;28;20064;-91
2022/04/16 00:06:41;;;;;;;0.10;0.10;;;;;;;;;;5018357;28;20044;-91
2022/04/16 00:09:07;;;;;;;0.15;0.15;;;;;;;;;;5021713;28;20511;-91
2022/04/16 00:11:33;;;;;;;0.10;0.10;;;;;;;;;;5021639;28;20036;-91
2022/04/16 00:14:00;;;;;;;0.28;0.28;;;;;;;;;;5038091;28;20094;-91
2022/04/16 00:16:26;;;;;;;0.10;0.10;;;;;;;;;;5021689;28;20040;-91
2022/04/16 00:18:52;;;;;;;0.10;0.10;;;;;;;;;;5021586;28;20562;-91
2022/04/16 00:21:18;;;;;;;0.20;0.20;;;;;;;;;;5021645;28;20051;-91
2022/04/16 00:23:44;;;;;;;0.20;0.20;;;;;;;;;;5037727;28;20492;-90
2022/04/16 00:26:12;;;;;;;0.10;0.10;;;;;;;;;;5054048;28;20045;-91
2022/04/16 00:28:39;;;;;;;0.10;0.10;;;;;;;;;;5022091;28;20036;-91
2022/04/16 00:31:05;;;;;;;0.10;0.10;;;;;;;;;;5021857;28;20067;-91
2022/04/16 00:33:33;;;;;;;0.10;0.10;;;;;;;;;;5021443;28;20041;-92
2022/04/16 00:35:59;;;;;;;0.10;0.10;;;;;;;;;;5021759;28;20072;-92
2022/04/16 00:38:25;;;;;;;0.10;0.10;;;;;;;;;;5021383;28;20041;-92
2022/04/16 00:40:52;;;;;;;0.10;0.10;;;;;;;;;;5038188;28;20045;-92
2022/04/16 00:43:22;;;;;;;0.10;0.10;;;;;;;;;;5054766;28;20049;-91
2022/04/16 00:45:48;;;;;;;0.10;0.10;;;;;;;;;;5021469;28;20095;-93
2022/04/16 00:48:13;;;;;;;0.10;0.10;;;;;;;;;;5021225;28;20041;-91
2022/04/16 00:50:40;;;;;;;0.10;0.10;;;;;;;;;;5021002;28;20037;-92
2022/04/16 00:53:06;;;;;;;0.32;0.28;;;;;;;;;;5037503;28;20539;-91
2022/04/16 00:55:33;;;;;;;0.20;0.20;;;;;;;;;;5037468;28;20053;-92
2022/04/16 00:57:59;;;;;;;0.13;0.10;;;;;;;;;;5020853;28;20037;-92
2022/04/16 01:00:25;;;;;;;0.10;0.10;;;;;;;;;;5021274;28;20071;-92
2022/04/16 01:02:51;;;;;;;0.10;0.10;;;;;;;;;;5053884;28;20045;-91
2022/04/16 01:05:19;;;;;;;0.10;0.10;;;;;;;;;;5020912;28;20043;-93
2022/04/16 01:07:53;;;;;;;0.10;0.10;;;;;;;;;;5021263;28;20476;-93
2022/04/16 01:10:20;;;;;;;0.10;0.10;;;;;;;;;;5021116;28;20041;-92
2022/04/16 01:12:46;;;;;;;0.22;0.22;;;;;;;;;;5020582;28;20067;-91
2022/04/16 01:15:13;;;;;;;0.10;0.10;;;;;;;;;;5020864;28;20045;-93
2022/04/16 01:17:39;;;;;;;0.52;0.52;;;;;;;;;;5020765;28;20039;-91
2022/04/16 01:20:05;;;;;;;0.10;0.10;;;;;;;;;;5037103;28;20373;-91
2022/04/16 01:22:34;;;;;;;0.15;0.15;;;;;;;;;;5037265;28;20127;-91
2022/04/16 01:25:00;;;;;;;0.20;0.20;;;;;;;;;;5036793;28;20088;-91
2022/04/16 01:27:26;;;;;;;0.10;0.10;;;;;;;;;;5036738;28;20041;-92
2022/04/16 01:29:53;;;;;;;0.10;0.10;;;;;;;;;;5020799;28;20037;-92
2022/04/16 01:32:19;;;;;;;0.10;0.10;;;;;;;;;;5036672;28;20507;-91
2022/04/16 01:34:45;;;;;;;0.10;0.10;;;;;;;;;;5036538;28;20114;-91
2022/04/16 01:37:12;;;;;;;0.47;0.47;;;;;;;;;;5020134;28;20033;-92
2022/04/16 01:39:38;;;;;;;0.10;0.10;;;;;;;;;;5020683;28;20037;-91
2022/04/16 01:42:04;;;;;;;0.10;0.10;;;;;;;;;;5020728;28;20472;-92
2022/04/16 01:44:33;;;;;;;0.10;0.10;;;;;;;;;;5037013;28;20040;-91
2022/04/16 01:47:00;;;;;;;0.10;0.10;;;;;;;;;;5021485;28;20137;-92
2022/04/16 01:49:26;;;;;;;0.10;0.10;;;;;;;;;;5039468;28;20048;-90
2022/04/16 01:51:54;;;;;;;0.25;0.25;;;;;;;;;;5038148;28;20476;-92
2022/04/16 01:54:20;;;;;;;0.10;0.10;;;;;;;;;;5032347;28;20074;-91
2022/04/16 01:56:46;;;;;;;0.38;0.20;;;;;;;;;;5060975;28;20037;-90
2022/04/16 01:59:12;;;;;;;0.10;0.10;;;;;;;;;;5039715;28;20105;-91
2022/04/16 02:01:38;;;;;;;0.10;0.10;;;;;;;;;;5037744;28;20476;-91
2022/04/16 02:04:04;;;;;;;0.10;0.10;;;;;;;;;;5022992;28;20067;-90
2022/04/16 02:06:30;;;;;;;0.20;0.20;;;;;;;;;;5043866;28;20037;-91
2022/04/16 02:08:56;;;;;;;0.10;0.10;;;;;;;;;;5050492;28;20087;-92
2022/04/16 02:11:22;;;;;;;0.10;0.10;;;;;;;;;;5020049;28;20447;-91
2022/04/16 02:13:48;;;;;;;0.20;0.20;;;;;;;;;;5035732;28;20040;-91
2022/04/16 02:16:15;;;;;;;0.10;0.10;;;;;;;;;;5036169;28;20051;-91
2022/04/16 02:18:41;;;;;;;0.20;0.20;;;;;;;;;;5035859;28;20124;-92
2022/04/16 02:21:10;;;;;;;0.10;0.10;;;;;;;;;;5019795;28;20037;-91
2022/04/16 02:23:36;;;;;;;0.10;0.10;;;;;;;;;;5019492;28;20397;-91
2022/04/16 02:26:06;;;;;;;0.20;0.20;;;;;;;;;;5035855;28;20037;-92
2022/04/16 02:28:32;;;;;;;0.10;0.10;;;;;;;;;;5019898;28;20048;-91
2022/04/16 02:30:58;;;;;;;0.25;0.25;;;;;;;;;;5035368;28;20045;-91
2022/04/16 02:33:24;;;;;;;0.15;0.15;;;;;;;;;;5052202;28;20051;-91
2022/04/16 02:35:51;;;;;;;0.10;0.10;;;;;;;;;;5019275;28;20511;-91
2022/04/16 02:38:18;;;;;;;0.10;0.10;;;;;;;;;;5035570;28;20041;-91
2022/04/16 02:40:44;;;;;;;0.10;0.10;;;;;;;;;;5019327;28;20041;-92
2022/04/16 02:43:09;;;;;;;0.10;0.10;;;;;;;;;;5035590;28;20314;-91
2022/04/16 02:48:20;;;;;;;0.10;0.10;;;;;;;;;;5052334;28;20392;-93
2022/04/16 02:50:46;;;;;;;0.10;0.10;;;;;;;;;;5035580;28;20041;-93
2022/04/16 02:53:12;;;;;;;0.10;0.10;;;;;;;;;;5035305;28;20044;-91
2022/04/16 02:55:38;;;;;;;0.10;0.10;;;;;;;;;;5035324;28;20377;-92
2022/04/16 02:58:04;;;;;;;0.20;0.20;;;;;;;;;;5051813;28;20091;-91
2022/04/16 03:00:30;;;;;;;0.10;0.10;;;;;;;;;;5019219;28;20036;-93
2022/04/16 03:02:56;;;;;;;0.13;0.13;;;;;;;;;;5019713;28;20039;-92
2022/04/16 03:05:23;;;;;;;0.10;0.10;;;;;;;;;;5019019;28;20119;-93
2022/04/16 03:07:50;;;;;;;0.10;0.10;;;;;;;;;;5018947;28;20048;-93
2022/04/16 03:10:16;;;;;;;0.10;0.10;;;;;;;;;;5052171;28;20228;-92
2022/04/16 03:12:51;;;;;;;0.20;0.20;;;;;;;;;;5035388;28;20181;-93
2022/04/16 03:18:02;;;;;;;0.10;0.10;;;;;;;;;;5038041;28;20038;-93
2022/04/16 03:20:29;;;;;;;0.10;0.10;;;;;;;;;;5035602;28;20506;-91
2022/04/16 03:22:55;;;;;;;0.10;0.10;;;;;;;;;;5034984;28;20060;-91
2022/04/16 03:25:21;;;;;;;0.10;0.10;;;;;;;;;;5035383;28;20052;-93
2022/04/16 03:27:48;;;;;;;0.10;0.10;;;;;;;;;;5019027;28;20033;-93
2022/04/16 03:30:14;;;;;;;0.10;0.10;;;;;;;;;;5051761;28;20557;-93
2022/04/16 03:32:40;;;;;;;0.10;0.10;;;;;;;;;;5018800;28;20128;-93
2022/04/16 03:35:07;;;;;;;0.10;0.10;;;;;;;;;;5018624;28;20140;-93
2022/04/16 03:37:33;;;;;;;0.10;0.10;;;;;;;;;;5035074;28;20037;-94
2022/04/16 03:39:59;;;;;;;0.10;0.10;;;;;;;;;;5018896;28;20044;-93
2022/04/16 03:42:25;;;;;;;0.10;0.10;;;;;;;;;;5036313;28;20116;-93
2022/04/16 03:44:51;;;;;;;0.10;0.10;;;;;;;;;;5039404;28;20075;-93
2022/04/16 03:47:17;;;;;;;0.10;0.10;;;;;;;;;;5055433;28;20041;-92
2022/04/16 03:49:43;;;;;;;0.10;0.10;;;;;;;;;;5038887;28;20067;-92
2022/04/16 03:52:09;;;;;;;0.10;0.10;;;;;;;;;;5022363;28;20091;-91
2022/04/16 04:00:05;;;;;;;0.30;0.30;;;;;;;;;;5041049;28;20124;-92
2022/04/16 04:02:33;;;;;;;0.10;0.10;;;;;;;;;;5021975;28;20045;-91
2022/04/16 04:04:59;;;;;;;0.10;0.10;;;;;;;;;;5022090;28;20543;-91
2022/04/16 04:07:25;;;;;;;0.50;0.50;;;;;;;;;;5038380;28;20051;-91
2022/04/16 04:09:51;;;;;;;0.20;0.20;;;;;;;;;;5038580;28;20132;-92
2022/04/16 04:12:17;;;;;;;0.10;0.10;;;;;;;;;;5038340;28;20515;-92
2022/04/16 04:14:44;;;;;;;0.10;0.10;;;;;;;;;;5038331;28;20389;-92
2022/04/16 04:17:10;;;;;;;0.10;0.10;;;;;;;;;;5022055;28;20040;-93
2022/04/16 04:19:37;;;;;;;0.10;0.10;;;;;;;;;;5022041;28;20044;-93
2022/04/16 04:22:03;;;;;;;0.30;0.30;;;;;;;;;;5022052;28;20500;-93
2022/04/16 04:24:29;;;;;;;0.15;0.15;;;;;;;;;;5021880;28;20041;-93
2022/04/16 04:26:56;;;;;;;0.30;0.30;;;;;;;;;;5021639;28;20049;-92
2022/04/16 04:29:22;;;;;;;0.35;0.35;;;;;;;;;;5038186;28;20037;-92
2022/04/16 04:31:48;;;;;;;0.10;0.10;;;;;;;;;;5021624;28;20051;-92
2022/04/16 04:34:15;;;;;;;0.20;0.20;;;;;;;;;;5038164;28;20046;-92
2022/04/16 04:36:41;;;;;;;0.10;0.10;;;;;;;;;;5038182;28;20376;-92
2022/04/16 04:39:07;;;;;;;0.52;0.47;;;;;;;;;;5037787;28;20091;-92
2022/04/16 04:41:33;;;;;;;0.10;0.10;;;;;;;;;;5037970;28;20484;-92
2022/04/16 04:43:59;;;;;;;0.10;0.10;;;;;;;;;;5038211;28;20040;-92
2022/04/16 04:46:25;;;;;;;0.10;0.10;;;;;;;;;;5054134;28;20052;-90
2022/04/16 04:48:51;;;;;;;0.10;0.10;;;;;;;;;;5037700;28;20071;-92
2022/04/16 04:51:17;;;;;;;0.40;0.40;;;;;;;;;;5037995;28;20045;-92
2022/04/16 04:53:43;;;;;;;0.10;0.10;;;;;;;;;;5036832;28;20123;-92
2022/04/16 04:56:12;;;;;;;0.20;0.20;;;;;;;;;;5038287;28;20055;-91
2022/04/16 04:58:38;;;;;;;0.10;0.10;;;;;;;;;;5021649;28;20128;-93
2022/04/16 05:01:04;;;;;;;0.10;0.10;;;;;;;;;;5021121;28;20037;-93
2022/04/16 05:03:30;;;;;;;2.03;0.32;;;;;;;;;;5037736;28;20101;-91
2022/04/16 05:05:56;;;;;;;0.10;0.10;;;;;;;;;;5037671;28;20072;-92
2022/04/16 05:08:22;;;;;;;0.35;0.35;;;;;;;;;;5037283;28;20041;-92
2022/04/16 05:10:48;;;;;;;0.20;0.20;;;;;;;;;;5020910;28;20043;-92
2022/04/16 05:13:14;;;;;;;0.20;0.20;;;;;;;;;;5053439;28;20037;-92
2022/04/16 05:15:40;;;;;;;0.15;0.15;;;;;;;;;;5020473;28;20037;-92
2022/04/16 05:18:06;;;;;;;0.10;0.10;;;;;;;;;;5037483;28;20259;-93
2022/04/16 05:20:32;;;;;;;0.10;0.10;;;;;;;;;;5020810;28;20036;-93
2022/04/16 05:22:58;;;;;;;0.10;0.10;;;;;;;;;;5036943;28;20039;-91
2022/04/16 05:25:24;;;;;;;0.10;0.10;;;;;;;;;;5020278;28;20052;-91
2022/04/16 05:27:50;;;;;;;1.02;0.57;;;;;;;;;;5036972;28;20051;-91
2022/04/16 05:30:38;;;;;;;0.20;0.20;;;;;;;;;;5037121;28;20045;-91
2022/04/16 05:33:16;;;;;;;0.20;0.20;;;;;;;;;;5023461;28;20041;-91
2022/04/16 05:35:42;;;;;;;0.10;0.10;;;;;;;;;;5038380;28;20045;-91
2022/04/16 05:38:08;;;;;;;0.10;0.10;;;;;;;;;;5020585;28;20045;-91
2022/04/16 05:40:34;;;;;;;0.10;0.10;;;;;;;;;;5036715;28;20112;-91
2022/04/16 05:43:00;;;;;;;0.10;0.10;;;;;;;;;;5053178;28;20037;-92
2022/04/16 05:45:26;;;;;;;0.10;0.10;;;;;;;;;;5020176;28;20175;-92
2022/04/16 05:47:52;;;;;;;0.57;0.52;;;;;;;;;;5020199;28;20048;-91
2022/04/16 05:50:18;;;;;;;0.10;0.10;;;;;;;;;;5036061;28;20036;-91
2022/04/16 05:52:44;;;;;;;0.10;0.10;;;;;;;;;;5035965;28;20033;-91
2022/04/16 05:55:11;;;;;;;0.10;0.10;;;;;;;;;;5052584;28;20060;-91
2022/04/16 05:57:37;;;;;;;0.10;0.10;;;;;;;;;;5036525;28;20047;-91
2022/04/16 06:00:03;;;;;;;0.10;0.10;;;;;;;;;;5020040;28;20127;-92
2022/04/16 06:02:29;;;;;;;0.10;0.10;;;;;;;;;;5036127;28;20098;-92
2022/04/16 06:04:55;;;;;;;0.10;0.10;;;;;;;;;;5019311;28;20041;-91
2022/04/16 06:07:21;;;;;;;0.15;0.15;;;;;;;;;;5020226;28;20041;-91
2022/04/16 06:09:47;;;;;;;0.10;0.10;;;;;;;;;;5020003;28;20044;-91
2022/04/16 06:12:13;;;;;;;0.10;0.10;;;;;;;;;;5020142;28;20041;-92
2022/04/16 06:14:39;;;;;;;0.10;0.10;;;;;;;;;;5053567;28;20123;-94
2022/04/16 06:17:05;;;;;;;0.10;0.10;;;;;;;;;;5038525;28;20056;-92
2022/04/16 06:19:31;;;;;;;0.10;0.10;;;;;;;;;;5037645;28;20051;-92
2022/04/16 06:22:00;;;;;;;0.10;0.10;;;;;;;;;;5026294;28;20033;-91
2022/04/16 06:24:26;;;;;;;0.10;0.10;;;;;;;;;;5039437;28;20040;-90
2022/04/16 06:26:55;;;;;;;0.10;0.10;;;;;;;;;;5054862;28;20124;-91
2022/04/16 06:29:20;;;;;;;0.10;0.10;;;;;;;;;;5054757;28;20072;-91
2022/04/16 06:31:48;;;;;;;0.10;0.10;;;;;;;;;;5037590;28;20052;-92
2022/04/16 06:34:14;;;;;;;0.10;0.10;;;;;;;;;;5041701;28;20104;-92
2022/04/16 06:36:40;;;;;;;0.10;0.10;;;;;;;;;;5040212;28;20067;-90
2022/04/16 06:39:06;;;;;;;0.40;0.40;;;;;;;;;;5019936;28;20041;-90
2022/04/16 06:41:32;;;;;;;0.20;0.20;;;;;;;;;;5035282;28;20045;-91
2022/04/16 06:43:58;;;;;;;0.10;0.10;;;;;;;;;;5019548;28;20048;-94
2022/04/16 06:46:24;;;;;;;0.17;0.17;;;;;;;;;;5051718;28;20033;-90
2022/04/16 06:48:50;;;;;;;0.10;0.10;;;;;;;;;;5018344;28;20041;-91
2022/04/16 06:51:16;;;;;;;0.28;0.28;;;;;;;;;;5035036;28;20133;-89
2022/04/16 06:53:43;;;;;;;0.80;0.20;;;;;;;;;;5051357;28;20068;-93
2022/04/16 06:56:09;;;;;;;0.10;0.10;;;;;;;;;;5034938;28;20063;-90
2022/04/16 06:58:35;;;;;;;0.10;0.10;;;;;;;;;;5034584;28;20045;-92
2022/04/16 07:01:01;;;;;;;0.10;0.10;;;;;;;;;;5018362;28;20556;-91
2022/04/16 07:03:27;;;;;;;0.20;0.20;;;;;;;;;;5034851;28;20427;-94
2022/04/16 07:05:53;;;;;;;0.10;0.10;;;;;;;;;;5018713;28;20044;-92
2022/04/16 07:08:19;;;;;;;0.20;0.20;;;;;;;;;;5035019;28;20137;-93
2022/04/16 07:10:45;;;;;;;0.20;0.20;;;;;;;;;;5018981;28;20040;-93
2022/04/16 07:13:11;;;;;;;0.10;0.10;;;;;;;;;;5019095;28;20373;-93
2022/04/16 07:15:37;;;;;;;0.57;0.57;;;;;;;;;;5035432;28;20045;-92
2022/04/16 07:18:03;;;;;;;0.20;0.20;;;;;;;;;;5044856;28;20544;-94
2022/04/16 07:20:29;;;;;;;1.55;0.20;;;;;;;;;;5025424;28;20058;-94
2022/04/16 07:22:55;;;;;;;0.10;0.10;;;;;;;;;;5025686;28;20033;-92
2022/04/16 07:25:21;;;;;;;0.10;0.10;;;;;;;;;;5041920;28;20098;-96
2022/04/16 07:27:47;;;;;;;0.10;0.10;;;;;;;;;;5025563;28;20044;-93
2022/04/16 07:30:14;;;;;;;0.20;0.20;;;;;;;;;;5025596;28;20051;-92
2022/04/16 07:32:39;;;;;;;0.10;0.10;;;;;;;;;;5024838;28;20041;-92
2022/04/16 07:35:06;;;;;;;0.20;0.20;;;;;;;;;;5041138;28;20086;-92
2022/04/16 07:37:32;;;;;;;0.10;0.10;;;;;;;;;;5024780;28;20136;-91
2022/04/16 07:39:58;;;;;;;0.13;0.13;;;;;;;;;;5040811;28;20141;-91
2022/04/16 07:42:27;;;;;;;0.10;0.10;;;;;;;;;;5040801;28;20492;-93
2022/04/16 07:44:54;;;;;;;2.50;0.75;;;;;;;;;;5040791;28;20157;-93
2022/04/16 07:47:20;;;;;;;0.15;0.15;;;;;;;;;;5041365;28;20045;-93
2022/04/16 07:49:45;;;;;;;0.10;0.10;;;;;;;;;;5040801;28;20041;-92
2022/04/16 07:52:11;;;;;;;0.10;0.10;;;;;;;;;;5024849;28;20052;-93
2022/04/16 07:54:37;;;;;;;0.10;0.10;;;;;;;;;;5024080;28;20085;-92
2022/04/16 07:57:05;;;;;;;0.20;0.20;;;;;;;;;;5024292;28;20120;-91
2022/04/16 07:59:31;;;;;;;0.10;0.10;;;;;;;;;;5024317;28;20055;-91
2022/04/16 08:01:57;;;;;;;0.43;0.40;;;;;;;;;;5040693;28;20044;-91
2022/04/16 08:04:23;;;;;;;0.30;0.30;;;;;;;;;;5040537;28;20400;-90
2022/04/16 08:06:50;;;;;;;0.10;0.10;;;;;;;;;;5040721;28;20064;-92
2022/04/16 08:09:16;;;;;;;0.10;0.10;;;;;;;;;;5025251;28;20106;-92
2022/04/16 08:11:42;;;;;;;0.10;0.10;;;;;;;;;;5041340;28;20037;-92
2022/04/16 08:14:08;;;;;;;0.10;0.10;;;;;;;;;;5024759;28;20052;-90
2022/04/16 08:16:34;;;;;;;0.28;0.28;;;;;;;;;;5041226;28;20052;-89
2022/04/16 08:19:00;;;;;;;0.10;0.10;;;;;;;;;;5040991;28;20040;-89
2022/04/16 08:21:26;;;;;;;0.17;0.17;;;;;;;;;;5024027;28;20060;-89
2022/04/16 08:23:56;;;;;;;0.10;0.10;;;;;;;;;;5024024;28;20036;-88
2022/04/16 08:26:23;;;;;;;0.10;0.10;;;;;;;;;;5041170;28;20153;-90
2022/04/16 08:28:49;;;;;;;0.20;0.20;;;;;;;;;;5019234;28;20480;-89
2022/04/16 08:31:15;;;;;;;0.13;0.13;;;;;;;;;;5037485;28;20063;-89
2022/04/16 08:33:41;;;;;;;0.20;0.20;;;;;;;;;;5037295;28;20488;-88
2022/04/16 08:36:07;;;;;;;0.10;0.10;;;;;;;;;;5037224;28;20451;-89
2022/04/16 08:38:33;;;;;;;0.10;0.10;;;;;;;;;;5037102;28;20438;-89
2022/04/16 08:40:59;;;;;;;0.10;0.10;;;;;;;;;;5025001;28;20072;-88
2022/04/16 08:43:25;;;;;;;0.10;0.10;;;;;;;;;;5037185;28;20051;-90
2022/04/16 08:45:51;;;;;;;0.20;0.20;;;;;;;;;;5037190;28;20048;-90
2022/04/16 08:48:17;;;;;;;0.20;0.20;;;;;;;;;;5037752;28;20037;-90
2022/04/16 08:50:44;;;;;;;0.35;0.35;;;;;;;;;;5037158;28;20396;-89
2022/04/16 08:53:10;;;;;;;0.10;0.10;;;;;;;;;;5037469;28;20123;-90
2022/04/16 08:55:37;;;;;;;0.10;0.10;;;;;;;;;;5036885;28;20044;-90
2022/04/16 08:58:03;;;;;;;0.20;0.20;;;;;;;;;;5037335;28;20127;-90
2022/04/16 09:00:29;;;;;;;0.10;0.10;;;;;;;;;;5037133;28;20040;-90
2022/04/16 09:03:03;;;;;;;1.00;0.40;;;;;;;;;;5037603;28;20045;-91
2022/04/16 09:05:32;;;;;;;0.10;0.10;;;;;;;;;;5038204;28;20080;-91
2022/04/16 09:07:59;;;;;;;0.10;0.10;;;;;;;;;;5037719;28;20126;-90
2022/04/16 09:10:26;;;;;;;0.20;0.20;;;;;;;;;;5038674;28;20048;-91
2022/04/16 09:12:53;;;;;;;0.10;0.10;;;;;;;;;;5037287;28;20087;-91
2022/04/16 09:15:19;;;;;;;0.10;0.10;;;;;;;;;;5037282;28;20094;-90
2022/04/16 09:17:47;;;;;;;0.17;0.17;;;;;;;;;;5037100;28;20110;-90
2022/04/16 09:20:13;;;;;;;0.10;0.10;;;;;;;;;;5036861;28;20484;-90
2022/04/16 09:22:41;;;;;;;0.73;0.73;;;;;;;;;;5037157;28;20076;-91
2022/04/16 09:25:14;;;;;;;0.10;0.10;;;;;;;;;;5037266;28;20102;-94
2022/04/16 09:27:41;;;;;;;0.10;0.10;;;;;;;;;;5037525;28;20400;-91
2022/04/16 09:30:07;;;;;;;0.10;0.10;;;;;;;;;;5036945;28;20040;-90
2022/04/16 09:32:40;;;;;;;0.25;0.25;;;;;;;;;;5036874;28;20053;-91
2022/04/16 09:35:07;;;;;;;0.10;0.10;;;;;;;;;;5036668;28;20048;-91
2022/04/16 09:37:33;;;;;;;0.10;0.10;;;;;;;;;;5053261;28;20033;-90
2022/04/16 09:40:09;;;;;;;0.10;0.10;;;;;;;;;;5035722;28;20037;-91
2022/04/16 09:42:35;;;;;;;0.10;0.10;;;;;;;;;;5053378;28;20041;-90
2022/04/16 09:45:02;;;;;;;0.10;0.10;;;;;;;;;;5036619;28;20053;-90
2022/04/16 09:47:28;;;;;;;0.10;0.10;;;;;;;;;;5036673;28;20051;-90
2022/04/16 09:49:55;;;;;;;0.10;0.10;;;;;;;;;;5036560;28;20048;-90
2022/04/16 09:52:21;;;;;;;0.10;0.10;;;;;;;;;;5036652;28;20480;-90
2022/04/16 09:54:47;;;;;;;0.10;0.10;;;;;;;;;;5052144;28;20049;-92
2022/04/16 09:57:13;;;;;;;0.10;0.10;;;;;;;;;;5037020;28;20044;-95
2022/04/16 09:59:39;;;;;;;0.10;0.10;;;;;;;;;;5019916;28;20041;-94
2022/04/16 10:02:05;;;;;;;0.10;0.10;;;;;;;;;;5036758;28;20475;-93
2022/04/16 10:04:33;;;;;;;0.10;0.10;;;;;;;;;;5036501;28;20055;-93
2022/04/16 10:06:59;;;;;;;0.13;0.13;;;;;;;;;;5036661;28;20128;-93
2022/04/16 10:09:27;;;;;;;0.10;0.10;;;;;;;;;;5036054;28;20056;-94
2022/04/16 10:14:40;;;;;;;0.20;0.20;;;;;;;;;;5038860;28;20044;-95
2022/04/16 10:17:25;;;;;;;0.20;0.20;;;;;;;;;;5036726;28;20515;-92
2022/04/16 10:19:54;;;;;;;0.10;0.10;;;;;;;;;;5053313;28;20048;-94
2022/04/16 10:22:27;;;;;;;0.10;0.10;;;;;;;;;;5020357;28;20414;-94
2022/04/16 10:24:59;;;;;;;0.10;0.10;;;;;;;;;;5037303;28;20451;-94
2022/04/16 10:27:25;;;;;;;0.10;0.10;;;;;;;;;;5040717;28;20036;-94
2022/04/16 10:29:51;;;;;;;0.10;0.10;;;;;;;;;;5037182;28;20270;-93
2022/04/16 10:32:17;;;;;;;0.10;0.10;;;;;;;;;;5045231;28;20043;-93
2022/04/16 10:34:43;;;;;;;0.10;0.10;;;;;;;;;;5058114;28;20100;-93
2022/04/16 10:37:22;;;;;;;0.10;0.10;;;;;;;;;;5056228;28;20048;-96
2022/04/16 10:39:48;;;;;;;0.20;0.20;;;;;;;;;;5040397;28;20037;-95
2022/04/16 10:42:14;;;;;;;0.10;0.10;;;;;;;;;;5048564;28;20040;-93
2022/04/16 10:44:44;;;;;;;0.10;0.10;;;;;;;;;;5058498;28;20055;-93
2022/04/16 10:47:17;;;;;;;0.15;0.15;;;;;;;;;;5063907;28;20053;-95
2022/04/16 10:49:44;;;;;;;0.10;0.10;;;;;;;;;;5035561;28;20087;-94
2022/04/16 10:52:19;;;;;;;0.10;0.10;;;;;;;;;;5035314;28;20047;-94
2022/04/16 10:54:47;;;;;;;0.10;0.10;;;;;;;;;;5036562;28;20056;-94
2022/04/16 10:57:13;;;;;;;0.10;0.10;;;;;;;;;;5035800;28;20037;-94
2022/04/16 10:59:39;;;;;;;0.10;0.10;;;;;;;;;;5035071;28;20040;-93
2022/04/16 11:02:38;;;;;;;0.10;0.10;;;;;;;;;;5035452;28;20037;-94
2022/04/16 11:05:11;;;;;;;0.10;0.10;;;;;;;;;;4979875;28;20057;-96
2022/04/16 11:07:41;;;;;;;0.10;0.10;;;;;;;;;;4989140;28;20128;-93
2022/04/16 11:10:08;;;;;;;0.10;0.10;;;;;;;;;;5051568;28;20091;-93
2022/04/16 11:12:34;;;;;;;0.10;0.10;;;;;;;;;;5035226;28;20118;-92
2022/04/16 11:15:00;;;;;;;0.10;0.10;;;;;;;;;;5034847;28;20049;-92
2022/04/16 11:17:27;;;;;;;0.10;0.10;;;;;;;;;;5035422;28;20056;-90
2022/04/16 11:20:27;;;;;;;0.10;0.10;;;;;;;;;;5035015;28;20033;-91
2022/04/16 11:22:53;;;;;;;0.10;0.10;;;;;;;;;;5034276;28;20572;-92
2022/04/16 11:25:22;;;;;;;0.10;0.10;;;;;;;;;;5034661;28;20076;-91
2022/04/16 11:36:05;;;;;;;0.10;0.10;;;;;;;;;;5037081;28;20045;-92
2022/04/16 11:38:32;;;;;;;0.10;0.10;;;;;;;;;;5034652;28;20415;-91
2022/04/16 11:41:04;;;;;;;0.10;0.10;;;;;;;;;;5034222;28;20041;-90
2022/04/16 11:43:30;;;;;;;0.10;0.10;;;;;;;;;;5034215;28;20053;-91
2022/04/16 11:45:56;;;;;;;0.10;0.10;;;;;;;;;;5034623;28;20041;-91
2022/04/16 11:48:22;;;;;;;0.10;0.10;;;;;;;;;;5034341;28;20510;-90
2022/04/16 11:50:48;;;;;;;0.10;0.10;;;;;;;;;;5034166;28;20094;-91
2022/04/16 11:53:14;;;;;;;0.10;0.10;;;;;;;;;;5034319;28;20053;-95
2022/04/16 11:55:50;;;;;;;0.20;0.20;;;;;;;;;;5034141;28;20049;-90
2022/04/16 11:58:16;;;;;;;0.10;0.10;;;;;;;;;;5034335;28;20048;-91
2022/04/16 12:00:55;;;;;;;0.20;0.20;;;;;;;;;;5034317;28;20384;-90
2022/04/16 12:03:40;;;;;;;0.10;0.10;;;;;;;;;;5035289;28;20044;-90
2022/04/16 12:06:13;;;;;;;0.10;0.10;;;;;;;;;;5037672;28;20444;-90
2022/04/16 12:08:42;;;;;;;0.70;0.28;;;;;;;;;;5037552;28;20491;-88
2022/04/16 12:11:08;;;;;;;0.10;0.10;;;;;;;;;;5037484;28;20041;-90
2022/04/16 12:13:37;;;;;;;0.10;0.10;;;;;;;;;;5035457;28;20407;-90
2022/04/16 12:16:07;;;;;;;0.10;0.10;;;;;;;;;;5038096;28;20045;-94
2022/04/16 12:18:43;;;;;;;0.10;0.10;;;;;;;;;;5038279;28;20041;-91
2022/04/16 12:21:16;;;;;;;0.10;0.10;;;;;;;;;;5037967;28;20037;-90
2022/04/16 12:23:44;;;;;;;0.20;0.20;;;;;;;;;;5037374;28;20037;-90
2022/04/16 12:26:10;;;;;;;0.10;0.10;;;;;;;;;;5037913;28;20037;-91
2022/04/16 12:28:41;;;;;;;0.10;0.10;;;;;;;;;;5037655;28;20049;-90
2022/04/16 12:31:07;;;;;;;0.10;0.10;;;;;;;;;;5037491;28;20040;-90
2022/04/16 12:33:33;;;;;;;0.20;0.20;;;;;;;;;;5037316;28;20052;-90
2022/04/16 12:35:59;;;;;;;0.10;0.10;;;;;;;;;;5037764;28;20039;-90
2022/04/16 12:38:26;;;;;;;0.10;0.10;;;;;;;;;;5037186;28;20032;-91
2022/04/16 12:40:52;;;;;;;0.10;0.10;;;;;;;;;;5037232;28;20399;-90
2022/04/16 12:43:18;;;;;;;0.10;0.10;;;;;;;;;;5037209;28;20040;-91
2022/04/16 12:45:44;;;;;;;0.10;0.10;;;;;;;;;;5036883;28;20040;-91
2022/04/16 12:48:10;;;;;;;0.50;0.50;;;;;;;;;;5035430;28;20056;-91
2022/04/16 12:50:36;;;;;;;0.20;0.20;;;;;;;;;;5020939;28;20045;-91
2022/04/16 12:53:04;;;;;;;0.10;0.10;;;;;;;;;;5020920;28;20036;-91
2022/04/16 12:55:30;;;;;;;0.10;0.10;;;;;;;;;;5036788;28;20053;-90
2022/04/16 12:57:57;;;;;;;0.10;0.10;;;;;;;;;;5037023;28;20048;-90
2022/04/16 13:00:24;;;;;;;0.10;0.10;;;;;;;;;;5020627;28;20492;-90
2022/04/16 13:02:50;;;;;;;0.10;0.10;;;;;;;;;;5037266;28;20041;-90
2022/04/16 13:05:16;;;;;;;0.10;0.10;;;;;;;;;;5036725;28;20067;-90
2022/04/16 13:07:44;;;;;;;0.10;0.10;;;;;;;;;;5036540;28;20041;-89
2022/04/16 13:10:10;;;;;;;0.10;0.10;;;;;;;;;;5036721;28;20468;-89
2022/04/16 13:12:37;;;;;;;0.10;0.10;;;;;;;;;;5019868;28;20072;-89
2022/04/16 13:15:03;;;;;;;0.10;0.10;;;;;;;;;;5019556;28;20052;-89
2022/04/16 13:17:30;;;;;;;0.10;0.10;;;;;;;;;;5037123;28;20041;-90
2022/04/16 13:19:59;;;;;;;0.10;0.10;;;;;;;;;;5052865;28;20045;-90
2022/04/16 13:22:26;;;;;;;0.10;0.10;;;;;;;;;;5036148;28;20033;-89
2022/04/16 13:24:52;;;;;;;0.10;0.10;;;;;;;;;;5052776;28;20090;-89
2022/04/16 13:27:18;;;;;;;0.10;0.10;;;;;;;;;;5035993;28;20040;-89
2022/04/16 13:29:44;;;;;;;0.10;0.10;;;;;;;;;;5052783;28;20041;-89
2022/04/16 13:32:10;;;;;;;0.10;0.10;;;;;;;;;;5036123;28;20045;-89
2022/04/16 13:34:36;;;;;;;0.10;0.10;;;;;;;;;;5019582;28;20123;-90
2022/04/16 13:37:03;;;;;;;0.10;0.10;;;;;;;;;;5020636;28;20491;-89
2022/04/16 13:42:15;;;;;;;0.10;0.10;;;;;;;;;;5053102;28;20420;-91
2022/04/16 13:44:41;;;;;;;0.10;0.10;;;;;;;;;;5019969;28;20499;-91
2022/04/16 13:47:07;;;;;;;0.10;0.10;;;;;;;;;;5019637;28;20079;-90
2022/04/16 13:49:33;;;;;;;0.10;0.10;;;;;;;;;;5020361;28;20071;-91
2022/04/16 13:51:59;;;;;;;0.10;0.10;;;;;;;;;;5019793;28;20137;-91
2022/04/16 13:54:25;;;;;;;0.10;0.10;;;;;;;;;;5035908;28;20080;-91
2022/04/16 13:56:51;;;;;;;0.10;0.10;;;;;;;;;;5036372;28;20489;-91
2022/04/16 13:59:17;;;;;;;0.10;0.10;;;;;;;;;;5052846;28;20040;-92
2022/04/16 14:01:43;;;;;;;0.10;0.10;;;;;;;;;;5036352;28;20037;-91
2022/04/16 14:04:09;;;;;;;0.10;0.10;;;;;;;;;;5019591;28;20511;-90
2022/04/16 14:06:35;;;;;;;0.17;0.17;;;;;;;;;;5036098;28;20051;-90
2022/04/16 14:09:01;;;;;;;0.10;0.10;;;;;;;;;;5019128;28;20048;-90
2022/04/16 14:11:28;;;;;;;0.10;0.10;;;;;;;;;;5035519;28;20400;-89
2022/04/16 14:13:54;;;;;;;0.20;0.20;;;;;;;;;;5035304;28;20072;-89
2022/04/16 14:16:21;;;;;;;0.10;0.10;;;;;;;;;;5035361;28;20072;-89
2022/04/16 14:18:49;;;;;;;0.10;0.10;;;;;;;;;;5052127;28;20484;-89
2022/04/16 14:21:15;;;;;;;0.15;0.15;;;;;;;;;;5019141;28;20120;-89
2022/04/16 14:23:41;;;;;;;0.10;0.10;;;;;;;;;;5035350;28;20080;-89
2022/04/16 14:26:07;;;;;;;0.10;0.10;;;;;;;;;;5035116;28;20040;-89
2022/04/16 14:28:33;;;;;;;0.10;0.10;;;;;;;;;;5036536;28;20025;-90
2022/04/16 14:31:00;;;;;;;0.20;0.20;;;;;;;;;;5036130;28;20094;-89
2022/04/16 14:33:26;;;;;;;0.10;0.10;;;;;;;;;;5051967;28;20040;-88
2022/04/16 14:35:52;;;;;;;0.10;0.10;;;;;;;;;;5062465;28;20500;-89
2022/04/16 14:38:20;;;;;;;0.10;0.10;;;;;;;;;;5051149;28;20047;-89
2022/04/16 14:40:46;;;;;;;0.30;0.30;;;;;;;;;;5027786;28;20439;-89
2022/04/16 14:43:13;;;;;;;0.10;0.10;;;;;;;;;;5035453;28;20036;-89
2022/04/16 14:45:42;;;;;;;0.10;0.10;;;;;;;;;;5046835;28;20108;-89
2022/04/16 14:48:09;;;;;;;0.10;0.10;;;;;;;;;;5049708;28;20060;-90
2022/04/16 14:50:37;;;;;;;0.10;0.10;;;;;;;;;;5054567;28;20044;-90
2022/04/16 14:53:06;;;;;;;0.10;0.10;;;;;;;;;;5034974;28;20049;-90
2022/04/16 14:55:33;;;;;;;0.13;0.13;;;;;;;;;;5034705;28;20060;-89
2022/04/16 14:57:59;;;;;;;0.10;0.10;;;;;;;;;;5050984;28;20051;-89
2022/04/16 15:00:25;;;;;;;0.10;0.10;;;;;;;;;;5034789;28;20033;-89
2022/04/16 15:02:51;;;;;;;0.10;0.10;;;;;;;;;;5034808;28;20369;-89
2022/04/16 15:05:17;;;;;;;0.10;0.10;;;;;;;;;;5034271;28;20055;-89
2022/04/16 15:07:43;;;;;;;0.10;0.10;;;;;;;;;;5033932;28;20443;-88